Romeoville, IL

6:02 AM CDT on June 23, 2017 (GMT -0500)
Lewis University

Weather History for KLOT - May, 2014

Change the Weather History Date:

Monday, May 5, 2014

  Actual Average Record
Temperature  
Mean Temperature 51 °F 57 °F  
Max Temperature 59 °F 68 °F 84 °F (2000)
Min Temperature 43 °F 46 °F 32 °F (1992)
Degree Days  
Heating Degree Days 14 9  
Month to date heating degree days 74 46  
Since 1 July heating degree days 7192 6040  
Cooling Degree Days 0 1  
Month to date cooling degree days 0 3  
Year to date cooling degree days 0 8  
Growing Degree Days 1 (Base 50)    
Moisture  
Dew Point 34 °F    
Average Humidity 54    
Maximum Humidity 71    
Minimum Humidity 36    
Precipitation  
Precipitation T in 0.14 in 0.78 in (2015)
Month to date precipitation 0.14 0.72  
Year to date precipitation 10.92 11.16  
Sea Level Pressure  
Sea Level Pressure 29.96 in    
Wind  
Wind Speed 13 mph (ENE)    
Max Wind Speed 22 mph    
Max Gust Speed 28 mph    
Visibility 10 miles    
Events Rain    
T = Trace of Precipitation, MM = Missing Value Source: NWS Daily Summary

Daily Weather History Graph

Daily Weather History Graph

Search for Another Location

Airport or City:

Trip Planner

Search our weather history database for the weather conditions in past years. The results will help you decide how hot, cold, wet, or windy it might be!

Date:

Astronomy

May. 05, 2014 Rise Set
Actual Time 5:44 AM CDT 7:54 PM CDT
Civil Twilight 5:13 AM CDT 8:25 PM CDT
Nautical Twilight 4:35 AM CDT 9:03 PM CDT
Astronomical Twilight 3:54 AM CDT 9:44 PM CDT
Moon 11:03 AM CDT (5/5) 12:38 AM CDT (5/5)
Length of Visible Light 15h 11m
Length of Day
14h 10m
Waxing Crescent, 37% of the Moon is Illuminated
May 5
Waxing Crescent
May 6
First Quarter
May 14
Full
May 21
Last Quarter
May 28
New

Hourly Weather History & Observations

Time (CDT) Temp. Windchill Dew Point Humidity Pressure Visibility Wind Dir Wind Speed Gust Speed Precip Events Conditions
12:10 AM 45.7 °F 41.0 °F 29.3 °F 53% 30.04 in 10.0 mi East 9.2 mph - N/A   Scattered Clouds
12:30 AM 45.7 °F 42.0 °F 29.1 °F 52% 30.04 in 10.0 mi East 6.9 mph - N/A   Scattered Clouds
12:50 AM 46.0 °F 41.0 °F 28.9 °F 51% 30.02 in 10.0 mi East 10.4 mph - N/A   Scattered Clouds
1:10 AM 45.9 °F 40.8 °F 29.1 °F 52% 30.01 in 10.0 mi East 10.4 mph - N/A   Scattered Clouds
1:30 AM 45.9 °F 40.8 °F 29.1 °F 52% 30.00 in 10.0 mi ENE 10.4 mph - N/A   Scattered Clouds
1:50 AM 45.7 °F 39.1 °F 29.7 °F 54% 30.00 in 10.0 mi ENE 15.0 mph 18.4 mph N/A   Scattered Clouds
2:10 AM 45.7 °F 40.2 °F 30.2 °F 55% 30.00 in 10.0 mi East 11.5 mph - N/A   Overcast
2:30 AM 45.7 °F 40.2 °F 30.9 °F 56% 29.99 in 10.0 mi East 11.5 mph - N/A   Overcast
2:50 AM 45.3 °F 39.7 °F 32.2 °F 60% 29.97 in 10.0 mi East 11.5 mph - N/A Rain Light Rain
3:10 AM 45.1 °F 39.1 °F 32.0 °F 60% 29.97 in 10.0 mi East 12.7 mph - N/A   Mostly Cloudy
3:30 AM 44.8 °F 40.4 °F 32.4 °F 62% 30.00 in 10.0 mi East 8.1 mph - N/A   Clear
3:50 AM 44.6 °F 38.8 °F 33.1 °F 64% 29.97 in 10.0 mi East 11.5 mph - N/A   Scattered Clouds
4:10 AM 45.0 °F 38.5 °F 34.0 °F 65% 29.92 in 10.0 mi East 13.8 mph - N/A   Scattered Clouds
4:30 AM 45.5 °F 41.3 °F 34.5 °F 65% 29.97 in 10.0 mi East 8.1 mph - N/A   Scattered Clouds
4:50 AM 45.7 °F 40.6 °F 34.9 °F 66% 29.95 in 10.0 mi East 10.4 mph - N/A   Scattered Clouds
5:10 AM 46.2 °F 41.7 °F 34.7 °F 64% 29.95 in 10.0 mi East 9.2 mph - N/A   Overcast
5:30 AM 46.0 °F 41.9 °F 34.7 °F 65% 29.95 in 10.0 mi East 8.1 mph - N/A   Overcast
5:50 AM 46.2 °F 40.8 °F 34.9 °F 65% 29.99 in 10.0 mi NE 11.5 mph - N/A   Overcast
6:10 AM 46.4 °F 41.5 °F 34.5 °F 63% 29.97 in 10.0 mi East 10.4 mph - N/A   Overcast
6:30 AM 46.6 °F - 34.7 °F 63% 29.99 in 10.0 mi ENE 9.2 mph - N/A   Overcast
6:50 AM 47.3 °F - 34.5 °F 61% 30.00 in 10.0 mi NE 16.1 mph - N/A   Overcast
7:10 AM 47.3 °F - 34.9 °F 62% 29.98 in 10.0 mi ENE 11.5 mph - N/A   Overcast
7:30 AM 47.3 °F - 36.3 °F 66% 29.99 in 10.0 mi NE 12.7 mph - N/A   Mostly Cloudy
7:50 AM 47.7 °F - 36.5 °F 65% 29.98 in 10.0 mi East 12.7 mph - N/A   Mostly Cloudy
8:10 AM 49.3 °F - 36.5 °F 61% 29.99 in 10.0 mi ENE 15.0 mph - N/A   Overcast
8:30 AM 50.0 °F - 36.5 °F 60% 29.98 in 10.0 mi ENE 13.8 mph 19.6 mph N/A   Scattered Clouds
8:50 AM 50.7 °F - 36.9 °F 59% 29.96 in 10.0 mi East 16.1 mph 24.2 mph N/A   Clear
9:10 AM 51.8 °F - 36.5 °F 56% 29.95 in 10.0 mi East 18.4 mph 21.9 mph N/A   Clear
9:30 AM 52.3 °F - 36.1 °F 54% 29.95 in 10.0 mi East 17.3 mph 25.3 mph N/A   Clear
9:50 AM 53.8 °F - 35.6 °F 50% 29.95 in 10.0 mi ENE 19.6 mph 24.2 mph N/A   Clear
10:10 AM 54.5 °F - 35.1 °F 48% 29.95 in 10.0 mi ENE 18.4 mph 24.2 mph N/A   Clear
10:30 AM 54.7 °F - 34.7 °F 47% 29.95 in 10.0 mi East 20.7 mph 25.3 mph N/A   Clear
10:50 AM 55.9 °F - 34.3 °F 44% 29.95 in 10.0 mi ENE 20.7 mph 27.6 mph N/A   Clear
11:10 AM 56.7 °F - 33.6 °F 42% 29.95 in 10.0 mi East 19.6 mph 24.2 mph N/A   Clear
11:30 AM 57.2 °F - 34.5 °F 43% 29.95 in 10.0 mi ENE 15.0 mph - N/A   Clear
11:50 AM 57.0 °F - 34.3 °F 42% 29.95 in 10.0 mi ENE 20.7 mph 25.3 mph N/A   Clear
12:10 PM 58.5 °F - 35.4 °F 42% 29.94 in 10.0 mi East 15.0 mph 23.0 mph N/A   Clear
12:30 PM 58.1 °F - 35.1 °F 42% 29.94 in 10.0 mi East 17.3 mph 21.9 mph N/A   Clear
12:50 PM 57.9 °F - 34.9 °F 42% 29.93 in 10.0 mi ENE 19.6 mph 26.5 mph N/A   Clear
1:10 PM 58.3 °F - 35.8 °F 43% 29.93 in 10.0 mi ENE 17.3 mph 24.2 mph N/A   Clear
1:30 PM 59.0 °F - 33.8 °F 39% 29.92 in 10.0 mi ENE 21.9 mph - N/A   Clear
1:50 PM 58.1 °F - 33.1 °F 39% 29.93 in 10.0 mi ENE 17.3 mph 26.5 mph N/A   Clear
2:10 PM 57.6 °F - 33.4 °F 40% 29.92 in 10.0 mi ENE 18.4 mph 25.3 mph N/A   Clear
2:30 PM 58.1 °F - 32.2 °F 38% 29.92 in 10.0 mi ENE 18.4 mph 25.3 mph N/A   Clear
2:50 PM 58.3 °F - 31.6 °F 36% 29.92 in 10.0 mi ENE 20.7 mph 26.5 mph N/A   Clear
3:10 PM 58.3 °F - 31.8 °F 37% 29.91 in 10.0 mi ENE 19.6 mph 25.3 mph N/A   Clear
3:30 PM 58.8 °F - 33.4 °F 38% 29.91 in 10.0 mi ENE 16.1 mph - N/A   Clear
3:50 PM 58.1 °F - 33.6 °F 40% 29.90 in 10.0 mi ENE 15.0 mph - N/A   Clear
4:10 PM 57.9 °F - 36.1 °F 44% 29.91 in 10.0 mi NE 15.0 mph 21.9 mph N/A   Clear
4:30 PM 58.6 °F - 34.2 °F 40% 29.92 in 10.0 mi ENE 13.8 mph - N/A   Clear
4:50 PM 58.1 °F - 34.2 °F 41% 29.92 in 10.0 mi NE 15.0 mph - N/A   Clear
5:10 PM 57.6 °F - 33.3 °F 40% 29.92 in 10.0 mi ENE 12.7 mph - N/A   Clear
5:30 PM 56.7 °F - 33.8 °F 42% 29.93 in 10.0 mi ENE 17.3 mph 21.9 mph N/A   Clear
5:50 PM 55.8 °F - 34.3 °F 44% 29.92 in 10.0 mi NE 16.1 mph 20.7 mph N/A   Clear
6:10 PM 54.5 °F - 34.7 °F 47% 29.93 in 10.0 mi ENE 16.1 mph - N/A   Clear
6:30 PM 53.6 °F - 34.9 °F 49% 29.93 in 10.0 mi ENE 12.7 mph - N/A   Clear
6:50 PM 52.9 °F - 34.0 °F 49% 29.93 in 10.0 mi NE 16.1 mph - N/A   Clear
7:10 PM 51.1 °F - 33.8 °F 52% 29.94 in 10.0 mi ENE 15.0 mph - N/A   Clear
7:30 PM 50.0 °F - 33.4 °F 53% 29.95 in 10.0 mi ENE 13.8 mph 20.7 mph N/A   Clear
7:50 PM 49.1 °F - 33.3 °F 54% 29.95 in 10.0 mi ENE 12.7 mph - N/A   Clear
8:10 PM 48.6 °F - 33.8 °F 57% 29.95 in 10.0 mi ENE 9.2 mph - N/A   Clear
8:30 PM 48.2 °F - 33.8 °F 58% 29.95 in 10.0 mi NE 12.7 mph - N/A   Clear
8:50 PM 47.3 °F - 34.2 °F 60% 29.95 in 10.0 mi NE 13.8 mph - N/A   Clear
9:10 PM 46.4 °F 39.5 °F 34.5 °F 63% 29.95 in 10.0 mi NE 17.3 mph - N/A   Clear
9:30 PM 45.5 °F 38.6 °F 34.9 °F 66% 29.96 in 10.0 mi NE 16.1 mph - N/A   Clear
9:50 PM 44.8 °F 37.4 °F 34.9 °F 68% 29.96 in 10.0 mi NE 17.3 mph - N/A   Clear
10:10 PM 44.1 °F 37.7 °F 35.1 °F 71% 29.97 in 10.0 mi NE 12.7 mph - N/A   Clear
10:30 PM 43.9 °F 37.5 °F 34.9 °F 71% 29.97 in 10.0 mi ENE 12.7 mph - N/A   Clear
10:50 PM 43.7 °F 36.9 °F 34.7 °F 71% 29.97 in 10.0 mi ENE 13.8 mph - N/A   Clear
11:10 PM 43.3 °F 36.8 °F 34.5 °F 71% 29.98 in 10.0 mi ENE 12.7 mph - N/A   Clear
11:30 PM 43.3 °F 36.1 °F 33.8 °F 69% 29.99 in 10.0 mi ENE 15.0 mph 19.6 mph N/A   Clear
11:50 PM 43.0 °F 35.7 °F 33.4 °F 69% 29.99 in 10.0 mi ENE 15.0 mph - N/A   Clear